createdAt,value
2018-07-21T00:02:19.867Z,25.60
2018-07-21T00:07:23.236Z,25.50
2018-07-21T00:17:29.685Z,25.40
2018-07-21T00:22:33.145Z,25.30
2018-07-21T00:27:36.524Z,25.20
2018-07-21T00:32:39.893Z,25.10
2018-07-21T00:37:43.257Z,25.10
2018-07-21T00:42:46.667Z,25.00
2018-07-21T00:47:50.047Z,25.10
2018-07-21T00:52:53.448Z,25.00
2018-07-21T00:57:56.816Z,25.00
2018-07-21T01:03:00.182Z,25.00
2018-07-21T01:13:06.664Z,24.90
2018-07-21T01:18:10.248Z,24.90
2018-07-21T01:23:13.731Z,24.80
2018-07-21T01:28:17.119Z,24.70
2018-07-21T01:33:20.539Z,24.60
2018-07-21T01:38:23.918Z,24.50
2018-07-21T01:43:27.264Z,24.50
2018-07-21T01:48:30.672Z,24.40
2018-07-21T01:53:34.052Z,24.30
2018-07-21T01:58:37.425Z,24.40
2018-07-21T02:03:44.576Z,24.40
2018-07-21T02:08:47.994Z,24.30
2018-07-21T02:13:51.392Z,24.20
2018-07-21T02:18:54.787Z,24.20
2018-07-21T02:23:58.136Z,24.10
2018-07-21T02:29:01.525Z,24.00
2018-07-21T02:34:04.884Z,24.00
2018-07-21T02:39:09.817Z,24.00
2018-07-21T02:44:13.195Z,24.00
2018-07-21T02:54:19.656Z,23.90
2018-07-21T02:59:23.123Z,23.80
2018-07-21T03:04:26.535Z,23.80
2018-07-21T03:09:29.901Z,23.70
2018-07-21T03:14:33.284Z,23.60
2018-07-21T03:19:36.737Z,23.60
2018-07-21T03:24:40.133Z,23.60
2018-07-21T03:29:43.529Z,23.50
2018-07-21T03:34:46.882Z,23.40
2018-07-21T03:39:50.252Z,23.30
2018-07-21T03:44:53.626Z,23.20
2018-07-21T03:49:57.006Z,23.20
2018-07-21T03:55:00.348Z,23.10
2018-07-21T04:00:03.786Z,23.10
2018-07-21T04:05:07.152Z,23.00
2018-07-21T04:10:10.555Z,23.00
2018-07-21T04:15:13.909Z,23.00
2018-07-21T04:20:17.306Z,23.00
2018-07-21T04:25:20.692Z,23.10
2018-07-21T04:30:24.048Z,23.10
2018-07-21T04:35:27.411Z,23.10
2018-07-21T04:40:30.759Z,23.10
2018-07-21T04:45:34.149Z,23.10
2018-07-21T04:50:37.505Z,23.00
2018-07-21T04:55:40.868Z,23.00
2018-07-21T05:00:44.354Z,23.00
2018-07-21T05:05:47.681Z,23.10
2018-07-21T05:10:51.036Z,23.20
2018-07-21T05:20:57.677Z,23.20
2018-07-21T05:26:01.019Z,23.20
2018-07-21T05:31:04.413Z,23.20
2018-07-21T05:36:08.216Z,23.20
2018-07-21T05:41:11.611Z,23.20
2018-07-21T05:46:14.956Z,23.20
2018-07-21T05:51:18.316Z,23.10
2018-07-21T05:56:21.690Z,23.20
2018-07-21T06:01:25.051Z,23.10
2018-07-21T06:06:28.403Z,23.10
2018-07-21T06:11:31.855Z,23.10
2018-07-21T06:16:35.651Z,23.10
2018-07-21T06:21:39.063Z,23.20
2018-07-21T06:26:42.444Z,23.30
2018-07-21T06:31:45.892Z,23.30
2018-07-21T06:36:49.253Z,23.40
2018-07-21T06:41:52.672Z,23.50
2018-07-21T06:46:56.062Z,23.50
2018-07-21T06:51:59.447Z,23.50
2018-07-21T06:57:02.873Z,23.60
2018-07-21T07:02:06.627Z,23.60
2018-07-21T07:07:10.066Z,23.60
2018-07-21T07:12:13.525Z,23.60
2018-07-21T07:17:16.948Z,23.50
2018-07-21T07:22:20.335Z,23.50
2018-07-21T07:27:23.742Z,23.50
2018-07-21T07:32:27.111Z,23.50
2018-07-21T07:37:30.505Z,23.50
2018-07-21T07:42:33.992Z,23.60
2018-07-21T07:47:37.402Z,23.70
2018-07-21T07:52:40.802Z,23.70
2018-07-21T07:57:44.176Z,23.80
2018-07-21T08:07:50.633Z,23.80
2018-07-21T08:12:54.032Z,23.90
2018-07-21T08:17:57.386Z,23.90
2018-07-21T08:23:00.850Z,24.00
2018-07-21T08:28:04.216Z,24.00
2018-07-21T08:33:07.610Z,24.00
2018-07-21T08:38:11.060Z,24.00
2018-07-21T08:43:14.455Z,24.00
2018-07-21T08:48:17.881Z,24.00
2018-07-21T08:53:21.308Z,24.00
2018-07-21T08:58:24.679Z,24.00
2018-07-21T09:03:28.096Z,24.00
2018-07-21T09:08:31.480Z,24.00
2018-07-21T09:13:34.855Z,24.00
2018-07-21T09:18:38.245Z,24.00
2018-07-21T09:23:41.568Z,23.90
2018-07-21T09:28:44.907Z,23.90
2018-07-21T09:33:48.276Z,23.90
2018-07-21T09:38:51.618Z,23.80
2018-07-21T09:43:54.969Z,23.80
2018-07-21T09:48:58.332Z,23.70
2018-07-21T09:54:01.644Z,23.70
2018-07-21T09:59:05.019Z,23.60
2018-07-21T10:04:08.461Z,23.60
2018-07-21T10:09:12.178Z,23.50
2018-07-21T10:14:15.537Z,23.50
2018-07-21T10:19:18.932Z,23.40
2018-07-21T10:24:27.578Z,23.40
2018-07-21T10:29:30.949Z,23.50
2018-07-21T10:34:34.282Z,23.40
2018-07-21T10:39:37.646Z,23.40
2018-07-21T10:44:40.986Z,23.40
2018-07-21T10:49:44.334Z,23.40
2018-07-21T10:54:47.705Z,23.40
2018-07-21T10:59:51.128Z,23.40
2018-07-21T11:04:54.501Z,23.50
2018-07-21T11:09:57.856Z,23.50
2018-07-21T11:15:01.232Z,23.50
2018-07-21T11:20:05.342Z,23.60
2018-07-21T11:25:09.049Z,23.60
2018-07-21T11:30:12.402Z,23.70
2018-07-21T11:35:15.837Z,23.80
2018-07-21T11:40:19.121Z,23.80
2018-07-21T11:45:22.478Z,23.80
2018-07-21T11:50:25.813Z,23.80
2018-07-21T11:55:29.162Z,23.90
2018-07-21T12:00:32.540Z,23.90
2018-07-21T12:05:35.969Z,24.00
2018-07-21T12:10:39.341Z,24.00
2018-07-21T12:15:42.686Z,24.10
2018-07-21T12:20:46.035Z,24.10
2018-07-21T12:25:49.429Z,24.20
2018-07-21T12:30:52.770Z,24.20
2018-07-21T12:35:56.185Z,24.30
2018-07-21T12:40:59.615Z,24.30
2018-07-21T12:46:02.942Z,24.40
2018-07-21T12:51:06.443Z,24.40
2018-07-21T12:56:09.901Z,24.50
2018-07-21T13:01:13.267Z,24.50
2018-07-21T13:06:16.743Z,24.50
2018-07-21T13:11:20.149Z,24.60
2018-07-21T13:16:23.586Z,24.60
2018-07-21T13:21:27.171Z,24.70
2018-07-21T13:26:30.561Z,24.80
2018-07-21T13:31:33.991Z,24.80
2018-07-21T13:36:37.348Z,24.90
2018-07-21T13:41:40.941Z,25.00
2018-07-21T13:46:44.297Z,25.10
2018-07-21T13:51:47.677Z,25.10
2018-07-21T13:56:51.033Z,25.10
2018-07-21T14:01:54.393Z,25.20
2018-07-21T14:06:57.791Z,25.30
2018-07-21T14:12:01.175Z,25.40
2018-07-21T14:17:04.585Z,25.40
2018-07-21T14:22:08.035Z,25.30
2018-07-21T14:27:11.399Z,25.40
2018-07-21T14:32:14.776Z,25.40
2018-07-21T14:37:18.156Z,25.40
2018-07-21T14:42:21.536Z,25.40
2018-07-21T14:47:24.947Z,25.40
2018-07-21T14:52:28.387Z,25.40
2018-07-21T14:57:31.790Z,25.40
2018-07-21T15:02:35.253Z,25.50
2018-07-21T15:07:38.697Z,25.50
2018-07-21T15:12:42.096Z,25.50
2018-07-21T15:17:45.523Z,25.60
2018-07-21T15:22:48.946Z,25.60
2018-07-21T15:27:52.342Z,25.70
2018-07-21T15:32:55.724Z,25.70
2018-07-21T15:37:59.155Z,25.60
2018-07-21T15:43:02.549Z,25.60
2018-07-21T15:48:06.060Z,25.60
2018-07-21T15:53:09.441Z,25.60
2018-07-21T15:58:12.867Z,25.60
2018-07-21T16:03:16.312Z,25.60
2018-07-21T16:08:19.926Z,25.60
2018-07-21T16:13:23.365Z,25.60
2018-07-21T16:18:26.814Z,25.70
2018-07-21T16:23:30.245Z,25.70
2018-07-21T16:28:33.694Z,25.70
2018-07-21T16:33:37.141Z,25.80
2018-07-21T16:38:40.689Z,25.80
2018-07-21T16:43:44.133Z,25.80
2018-07-21T16:48:48.247Z,25.80
2018-07-21T16:53:51.697Z,25.80
2018-07-21T16:58:55.198Z,25.80
2018-07-21T17:03:58.649Z,25.70
2018-07-21T17:09:02.157Z,25.70
2018-07-21T17:14:05.600Z,25.70
2018-07-21T17:19:09.084Z,25.70
2018-07-21T17:24:12.412Z,25.60
2018-07-21T17:29:15.920Z,25.60
2018-07-21T17:34:19.357Z,25.50
2018-07-21T17:39:22.930Z,25.60
2018-07-21T17:44:26.290Z,25.50
2018-07-21T17:49:29.836Z,25.50
2018-07-21T17:54:33.305Z,25.50
2018-07-21T17:59:36.783Z,25.50
2018-07-21T18:04:40.205Z,25.50
2018-07-21T18:09:43.681Z,25.50
2018-07-21T18:14:47.178Z,25.40
2018-07-21T18:19:50.592Z,25.40
2018-07-21T18:24:54.040Z,25.30
2018-07-21T18:29:57.586Z,25.20
2018-07-21T18:35:01.139Z,25.20
2018-07-21T18:40:04.696Z,25.20
2018-07-21T18:45:08.126Z,25.20
2018-07-21T18:50:11.554Z,25.10
2018-07-21T18:55:14.998Z,25.00
2018-07-21T19:00:18.461Z,24.90
2018-07-21T19:05:21.876Z,24.80
2018-07-21T19:10:28.328Z,24.80
2018-07-21T19:15:37.219Z,24.70
2018-07-21T19:21:44.296Z,24.70
2018-07-21T19:26:54.305Z,24.60
2018-07-21T19:32:03.189Z,24.50
2018-07-21T19:37:11.659Z,24.50
2018-07-21T19:42:15.049Z,24.50
2018-07-21T19:47:18.595Z,24.50
2018-07-21T19:52:21.954Z,24.40
2018-07-21T19:57:25.368Z,24.40
2018-07-21T20:02:28.942Z,24.30
2018-07-21T20:12:35.520Z,24.20
2018-07-21T20:17:38.971Z,24.30
2018-07-21T20:22:42.423Z,24.20
2018-07-21T20:27:45.793Z,24.20
2018-07-21T20:32:49.195Z,24.10
2018-07-21T20:37:52.707Z,24.10
2018-07-21T20:42:56.150Z,24.00
2018-07-21T20:47:59.570Z,24.00
2018-07-21T20:53:03.862Z,24.00
2018-07-21T20:58:07.285Z,23.90
2018-07-21T21:03:10.681Z,23.90
2018-07-21T21:08:14.121Z,23.90
2018-07-21T21:13:17.500Z,23.80
2018-07-21T21:18:21.004Z,23.80
2018-07-21T21:23:24.467Z,23.80
2018-07-21T21:28:27.904Z,23.80
2018-07-21T21:33:31.327Z,23.70
2018-07-21T21:38:34.705Z,23.80
2018-07-21T21:43:38.144Z,23.80
2018-07-21T21:48:41.508Z,23.70
2018-07-21T21:53:44.932Z,23.70
2018-07-21T21:58:48.344Z,23.70
2018-07-21T22:03:51.719Z,23.70
2018-07-21T22:08:55.087Z,23.60
2018-07-21T22:13:58.500Z,23.60
2018-07-21T22:19:01.934Z,23.60
2018-07-21T22:24:05.328Z,23.60
2018-07-21T22:29:08.704Z,23.50
2018-07-21T22:34:12.168Z,23.50
2018-07-21T22:39:15.563Z,23.50
2018-07-21T22:44:18.968Z,23.40
2018-07-21T22:49:22.414Z,23.40
2018-07-21T22:54:25.801Z,23.40
2018-07-21T22:59:29.269Z,23.30
2018-07-21T23:04:32.636Z,23.20
2018-07-21T23:09:36.039Z,23.20
2018-07-21T23:14:39.504Z,23.20
2018-07-21T23:19:42.879Z,23.20
2018-07-21T23:24:46.261Z,23.10
2018-07-21T23:29:49.636Z,23.10
2018-07-21T23:34:53.047Z,23.10
2018-07-21T23:39:56.468Z,23.10
2018-07-21T23:44:59.882Z,23.00
2018-07-21T23:50:03.317Z,23.00
2018-07-21T23:55:07.508Z,23.00
